Time;durP1;ratioP1;P1;durP2;ratioP2;P2;SDS_P1;SDS_P2;PMS_P1;PMS_P2;Temp;Humidity;BMP_temperature;BMP_pressure;BME280_temperature;BME280_humidity;BME280_pressure;Samples;Min_cycle;Max_cycle;Signal;HPM_P1;HPM_P2
2020/12/02 00:01:17;;;;;;;22.02;11.13;;;3.70;99.90;;;;;;5032504;28;20077;-76
2020/12/02 00:03:53;;;;;;;24.35;12.57;;;3.80;99.90;;;;;;5033141;28;20402;-76
2020/12/02 00:06:20;;;;;;;23.38;12.75;;;3.80;99.90;;;;;;5031182;28;20049;-75
2020/12/02 00:08:58;;;;;;;21.63;10.98;;;3.80;99.90;;;;;;5031142;28;20041;-77
2020/12/02 00:11:27;;;;;;;26.98;12.95;;;3.80;99.90;;;;;;5033614;28;20027;-76
2020/12/02 00:13:55;;;;;;;22.27;12.00;;;3.80;99.90;;;;;;5034091;28;20233;-75
2020/12/02 00:16:23;;;;;;;23.83;12.25;;;3.90;99.90;;;;;;5032307;28;20036;-75
2020/12/02 00:18:53;;;;;;;24.73;12.82;;;3.90;99.90;;;;;;5033867;28;20499;-76
2020/12/02 00:21:20;;;;;;;24.70;12.98;;;3.80;99.90;;;;;;5033966;28;20037;-75
2020/12/02 00:23:46;;;;;;;27.67;13.45;;;3.70;99.90;;;;;;5031779;28;20132;-76
2020/12/02 00:26:15;;;;;;;24.42;12.70;;;3.70;99.90;;;;;;5031333;28;20055;-76
2020/12/02 00:28:41;;;;;;;26.50;13.60;;;4.60;99.90;;;;;;5038065;28;20136;-76
2020/12/02 00:31:07;;;;;;;25.60;13.48;;;3.70;99.90;;;;;;5031289;28;20033;-77
2020/12/02 00:33:33;;;;;;;25.00;12.98;;;3.70;99.90;;;;;;5029571;28;20044;-76
2020/12/02 00:35:59;;;;;;;26.25;12.88;;;3.70;99.90;;;;;;5027073;28;20053;-76
2020/12/02 00:38:24;;;;;;;26.77;12.55;;;3.70;99.90;;;;;;5031676;28;20077;-76
2020/12/02 00:40:52;;;;;;;25.52;13.35;;;3.70;99.90;;;;;;5029027;28;20037;-76
2020/12/02 00:43:24;;;;;;;34.00;15.10;;;3.80;99.90;;;;;;5042653;28;20121;-76
2020/12/02 00:45:51;;;;;;;25.00;13.15;;;3.80;99.90;;;;;;5031516;28;20109;-76
2020/12/02 00:48:20;;;;;;;32.58;13.90;;;3.80;99.90;;;;;;5032510;28;20033;-77
2020/12/02 00:50:46;;;;;;;29.75;13.13;;;3.80;99.90;;;;;;5029740;28;20099;-77
2020/12/02 00:53:15;;;;;;;42.13;15.75;;;3.80;99.90;;;;;;5027862;28;20128;-76
2020/12/02 00:55:43;;;;;;;30.55;13.90;;;3.90;99.90;;;;;;5030438;28;20029;-75
2020/12/02 00:58:14;;;;;;;28.50;13.85;;;3.90;99.90;;;;;;5033371;28;20087;-75
2020/12/02 01:00:41;;;;;;;27.45;13.65;;;3.80;99.90;;;;;;5013942;28;20515;-76
2020/12/02 01:03:18;;;;;;;25.75;12.70;;;3.80;99.90;;;;;;5043758;28;20037;-76
2020/12/02 01:05:46;;;;;;;29.13;13.60;;;3.80;99.90;;;;;;5027167;28;20041;-75
2020/12/02 01:08:18;;;;;;;26.50;11.95;;;3.80;99.90;;;;;;5031015;28;20052;-74
2020/12/02 01:10:46;;;;;;;25.67;12.35;;;3.80;99.90;;;;;;5030112;28;20033;-75
2020/12/02 01:13:11;;;;;;;23.33;11.02;;;3.80;99.90;;;;;;5028526;28;20430;-75
2020/12/02 01:15:37;;;;;;;27.55;12.75;;;3.80;99.90;;;;;;5028986;28;20160;-77
2020/12/02 01:18:19;;;;;;;25.77;12.70;;;4.10;99.90;;;;;;5026885;28;20033;-76
2020/12/02 01:20:46;;;;;;;26.05;11.90;;;3.80;99.90;;;;;;5028606;28;20529;-77
2020/12/02 01:23:15;;;;;;;23.38;11.73;;;3.80;99.90;;;;;;5031157;28;20041;-77
2020/12/02 01:25:44;;;;;;;22.13;10.30;;;3.80;99.90;;;;;;5032319;28;20025;-76
2020/12/02 01:28:16;;;;;;;24.75;11.77;;;3.70;99.90;;;;;;5025705;28;20057;-75
2020/12/02 01:30:42;;;;;;;23.00;10.50;;;3.80;99.90;;;;;;5030859;28;20040;-75
2020/12/02 01:33:14;;;;;;;21.60;10.55;;;3.80;99.90;;;;;;5026935;28;20037;-76
2020/12/02 01:35:43;;;;;;;18.60;10.20;;;3.90;99.90;;;;;;5028945;28;20033;-76
2020/12/02 01:38:11;;;;;;;23.23;11.50;;;3.90;99.90;;;;;;5031242;28;20040;-76
2020/12/02 01:40:36;;;;;;;20.50;9.98;;;4.00;99.90;;;;;;5013740;28;20048;-77
2020/12/02 01:43:06;;;;;;;22.85;9.95;;;4.10;99.90;;;;;;5041534;28;20457;-75
2020/12/02 01:45:51;;;;;;;21.77;9.93;;;4.00;99.90;;;;;;5022405;28;20073;-76
2020/12/02 01:48:38;;;;;;;20.98;9.65;;;4.00;99.90;;;;;;5031667;28;20124;-77
2020/12/02 01:51:08;;;;;;;21.15;10.23;;;4.00;99.90;;;;;;5028580;28;20120;-77
2020/12/02 01:53:39;;;;;;;21.13;9.93;;;4.10;99.90;;;;;;5039333;28;20030;-76
2020/12/02 01:56:19;;;;;;;21.10;10.32;;;4.00;99.90;;;;;;5038958;28;20033;-75
2020/12/02 01:59:06;;;;;;;20.45;9.90;;;4.00;99.90;;;;;;5028480;28;20452;-76
2020/12/02 02:01:56;;;;;;;20.45;10.38;;;4.00;99.90;;;;;;5039455;28;20114;-76
2020/12/02 02:04:28;;;;;;;22.52;11.15;;;4.00;99.90;;;;;;5026512;28;20056;-76
2020/12/02 02:07:06;;;;;;;22.55;10.93;;;3.90;99.90;;;;;;5026210;28;20136;-75
2020/12/02 02:09:33;;;;;;;24.23;10.90;;;3.90;99.90;;;;;;5025395;28;20041;-75
2020/12/02 02:12:27;;;;;;;23.85;11.45;;;3.90;99.90;;;;;;5027652;28;20135;-76
2020/12/02 02:15:24;;;;;;;26.33;11.38;;;3.80;99.90;;;;;;5045526;28;20043;-77
2020/12/02 02:18:03;;;;;;;26.27;11.73;;;3.70;99.90;;;;;;5026175;28;20041;-76
2020/12/02 02:20:34;;;;;;;25.38;10.95;;;3.80;99.90;;;;;;5025211;28;20033;-76
2020/12/02 02:23:01;;;;;;;27.38;12.48;;;3.80;99.90;;;;;;5029736;28;20450;-75
2020/12/02 02:25:27;;;;;;;26.40;11.18;;;3.80;99.90;;;;;;5027939;28;20025;-76
2020/12/02 02:27:56;;;;;;;25.40;11.68;;;3.90;99.90;;;;;;5027617;28;20482;-77
2020/12/02 02:30:22;;;;;;;24.25;10.68;;;3.90;99.90;;;;;;5027537;28;20072;-76
2020/12/02 02:32:48;;;;;;;25.02;13.10;;;3.90;99.90;;;;;;5008705;28;20041;-75
2020/12/02 02:35:14;;;;;;;22.80;10.63;;;4.00;99.90;;;;;;5009740;28;20037;-76
2020/12/02 02:37:39;;;;;;;25.98;12.80;;;3.90;99.90;;;;;;5024728;28;20041;-76
2020/12/02 02:40:09;;;;;;;25.88;11.85;;;3.80;99.90;;;;;;5028397;28;20033;-76
2020/12/02 02:42:44;;;;;;;25.95;12.23;;;3.80;99.90;;;;;;5031348;28;20053;-78
2020/12/02 02:45:16;;;;;;;20.67;10.80;;;3.80;99.90;;;;;;5033443;28;20044;-75
2020/12/02 02:47:43;;;;;;;20.83;10.52;;;3.80;99.90;;;;;;5033314;28;20049;-76
2020/12/02 02:50:13;;;;;;;21.77;11.32;;;3.80;99.90;;;;;;5031440;28;20510;-76
2020/12/02 02:52:40;;;;;;;23.33;11.10;;;3.80;99.90;;;;;;5034892;28;20017;-76
2020/12/02 02:55:08;;;;;;;21.00;10.68;;;3.80;99.90;;;;;;5032887;28;20047;-75
2020/12/02 02:57:34;;;;;;;20.55;10.40;;;3.80;99.90;;;;;;5030670;28;20499;-75
2020/12/02 03:00:00;;;;;;;22.48;10.90;;;3.80;99.90;;;;;;5029784;28;20039;-76
2020/12/02 03:02:25;;;;;;;19.45;9.95;;;3.80;99.90;;;;;;5032098;28;20434;-76
2020/12/02 03:04:51;;;;;;;21.88;11.43;;;3.80;99.90;;;;;;5031916;28;20037;-75
2020/12/02 03:07:18;;;;;;;19.60;10.40;;;3.90;99.90;;;;;;5031854;28;20038;-74
2020/12/02 03:09:44;;;;;;;19.70;10.38;;;3.90;99.90;;;;;;5029196;28;20091;-76
2020/12/02 03:12:10;;;;;;;18.80;10.07;;;3.90;99.90;;;;;;5028182;28;20454;-76
2020/12/02 03:14:41;;;;;;;20.33;10.63;;;4.00;99.90;;;;;;5029829;28;20538;-76
2020/12/02 03:17:12;;;;;;;20.13;10.65;;;4.00;99.90;;;;;;5031645;28;20052;-75
2020/12/02 03:19:39;;;;;;;18.45;9.50;;;3.90;99.90;;;;;;5034176;28;20041;-76
2020/12/02 03:22:10;;;;;;;19.15;10.43;;;3.90;99.90;;;;;;5032702;28;20039;-77
2020/12/02 03:24:36;;;;;;;19.45;10.40;;;3.90;99.90;;;;;;5029581;28;20041;-75
2020/12/02 03:27:02;;;;;;;20.80;10.30;;;3.90;99.90;;;;;;5026880;28;20137;-76
2020/12/02 03:29:30;;;;;;;18.42;10.35;;;3.90;99.90;;;;;;5025575;28;20568;-76
2020/12/02 03:31:56;;;;;;;16.10;8.48;;;4.00;99.90;;;;;;5026105;28;20024;-76
2020/12/02 03:34:22;;;;;;;18.10;10.38;;;4.10;99.90;;;;;;5029747;28;20037;-76
2020/12/02 03:36:48;;;;;;;20.52;10.25;;;4.00;99.90;;;;;;5033263;28;20065;-76
2020/12/02 03:39:15;;;;;;;17.67;9.65;;;4.00;99.90;;;;;;5033241;28;20442;-76
2020/12/02 03:41:42;;;;;;;16.10;9.45;;;4.00;99.90;;;;;;5029235;28;20054;-76
2020/12/02 03:44:09;;;;;;;15.30;8.18;;;4.00;99.90;;;;;;5024328;28;20068;-76
2020/12/02 03:46:35;;;;;;;18.25;9.73;;;4.10;99.90;;;;;;5036151;28;20435;-76
2020/12/02 03:49:02;;;;;;;16.08;8.85;;;4.10;99.90;;;;;;5032993;28;20116;-76
2020/12/02 03:51:29;;;;;;;14.15;8.38;;;4.00;99.90;;;;;;5028885;28;20475;-75
2020/12/02 03:53:55;;;;;;;13.55;7.78;;;4.10;99.90;;;;;;5029548;28;20021;-76
2020/12/02 03:56:21;;;;;;;14.98;9.10;;;4.20;99.90;;;;;;5030462;28;20038;-75
2020/12/02 03:58:48;;;;;;;15.65;8.90;;;4.20;99.90;;;;;;5030861;28;20041;-75
2020/12/02 04:01:14;;;;;;;14.32;8.35;;;4.10;99.90;;;;;;5026931;28;20087;-75
2020/12/02 04:03:40;;;;;;;18.98;10.10;;;4.10;99.90;;;;;;5029642;28;20085;-75
2020/12/02 04:06:07;;;;;;;16.30;9.32;;;4.00;99.90;;;;;;5027595;28;20085;-75
2020/12/02 04:08:35;;;;;;;19.75;10.68;;;4.00;99.90;;;;;;5029584;28;20040;-75
2020/12/02 04:11:01;;;;;;;19.38;9.98;;;3.90;99.90;;;;;;5022744;28;20038;-76
2020/12/02 04:13:26;;;;;;;17.77;10.07;;;4.00;99.90;;;;;;5014795;28;20094;-76
2020/12/02 04:15:52;;;;;;;15.98;9.45;;;3.90;99.90;;;;;;5030135;28;20069;-75
2020/12/02 04:18:18;;;;;;;14.60;8.85;;;3.90;99.90;;;;;;5025549;28;20045;-75
2020/12/02 04:20:43;;;;;;;15.32;8.52;;;3.90;99.90;;;;;;5029139;28;20040;-75
2020/12/02 04:23:09;;;;;;;16.77;9.80;;;4.00;99.90;;;;;;5030387;28;20036;-76
2020/12/02 04:25:34;;;;;;;14.60;9.10;;;3.90;99.90;;;;;;5034470;28;20033;-76
2020/12/02 04:28:00;;;;;;;15.57;8.70;;;3.90;99.90;;;;;;5021736;28;20047;-75
2020/12/02 04:30:26;;;;;;;17.33;9.07;;;3.90;99.90;;;;;;5031366;28;20479;-75
2020/12/02 04:32:51;;;;;;;17.10;9.52;;;4.00;99.90;;;;;;5027290;28;20045;-75
2020/12/02 04:35:18;;;;;;;16.85;9.82;;;4.00;99.90;;;;;;5023451;28;20499;-75
2020/12/02 04:37:44;;;;;;;15.70;9.68;;;4.00;99.90;;;;;;5030730;28;20063;-75
2020/12/02 04:40:29;;;;;;;16.80;9.68;;;4.00;99.90;;;;;;5028700;28;20046;-75
2020/12/02 04:43:02;;;;;;;16.23;9.25;;;4.00;99.90;;;;;;5018897;28;20069;-76
2020/12/02 04:45:31;;;;;;;18.15;9.30;;;3.90;99.90;;;;;;5030977;28;20056;-75
2020/12/02 04:48:01;;;;;;;18.23;10.65;;;4.00;99.90;;;;;;5022955;28;20045;-75
2020/12/02 04:50:28;;;;;;;20.13;10.90;;;3.90;99.90;;;;;;5030104;28;20048;-75
2020/12/02 04:53:21;;;;;;;17.65;10.40;;;4.00;99.90;;;;;;5027349;28;20046;-75
2020/12/02 04:55:50;;;;;;;18.83;10.20;;;4.00;99.90;;;;;;5020842;28;20048;-76
2020/12/02 04:58:35;;;;;;;19.42;10.88;;;3.90;99.90;;;;;;5032330;28;20041;-75
2020/12/02 05:01:23;;;;;;;16.92;9.43;;;4.00;99.90;;;;;;5026776;28;20057;-75
2020/12/02 05:03:55;;;;;;;19.48;10.38;;;3.90;99.90;;;;;;5025667;28;20067;-76
2020/12/02 05:06:42;;;;;;;18.02;10.13;;;4.00;99.90;;;;;;5028545;28;20060;-76
2020/12/02 05:09:17;;;;;;;20.02;10.45;;;3.90;99.90;;;;;;5025797;28;20033;-77
2020/12/02 05:11:52;;;;;;;19.02;10.38;;;4.00;99.90;;;;;;5027851;28;20040;-77
2020/12/02 05:14:18;;;;;;;21.85;11.88;;;3.90;99.90;;;;;;5028231;28;20041;-77
2020/12/02 05:16:44;;;;;;;20.95;10.95;;;3.90;99.90;;;;;;5005017;28;20207;-77
2020/12/02 05:19:19;;;;;;;22.48;11.18;;;3.90;99.90;;;;;;5022269;28;20042;-75
2020/12/02 05:21:45;;;;;;;20.52;10.50;;;3.90;99.90;;;;;;5018327;28;20045;-76
2020/12/02 05:24:17;;;;;;;18.77;10.05;;;4.00;99.90;;;;;;5026915;28;20522;-75
2020/12/02 05:26:46;;;;;;;19.40;9.90;;;3.90;99.90;;;;;;5023063;28;20217;-77
2020/12/02 05:29:39;;;;;;;19.17;10.55;;;4.00;99.90;;;;;;5024604;28;20045;-77
2020/12/02 05:32:15;;;;;;;21.35;11.35;;;4.00;99.90;;;;;;5033379;28;20041;-77
2020/12/02 05:34:41;;;;;;;21.35;10.90;;;3.90;99.90;;;;;;5024488;28;20037;-76
2020/12/02 05:37:13;;;;;;;20.73;10.90;;;3.90;99.90;;;;;;5020996;28;20034;-76
2020/12/02 05:39:54;;;;;;;19.52;10.93;;;3.90;99.90;;;;;;5029738;28;20044;-77
2020/12/02 05:42:35;;;;;;;21.80;11.57;;;3.90;99.90;;;;;;5025230;28;20038;-76
2020/12/02 05:45:10;;;;;;;21.17;11.65;;;3.90;99.90;;;;;;5022597;28;20033;-76
2020/12/02 05:47:36;;;;;;;20.83;11.18;;;3.90;99.90;;;;;;5026016;28;20041;-75
2020/12/02 05:50:05;;;;;;;19.38;10.20;;;3.90;99.90;;;;;;5024508;28;20040;-76
2020/12/02 05:52:36;;;;;;;21.70;11.57;;;3.90;99.90;;;;;;5021571;28;20467;-75
2020/12/02 05:55:14;;;;;;;20.65;11.35;;;4.00;99.90;;;;;;5022038;28;20095;-76
2020/12/02 05:57:59;;;;;;;21.38;11.05;;;4.00;99.90;;;;;;5023949;28;20061;-76
2020/12/02 06:00:29;;;;;;;19.80;10.57;;;4.00;99.90;;;;;;5022236;28;20045;-76
2020/12/02 06:02:56;;;;;;;19.35;10.25;;;4.00;99.90;;;;;;5025403;28;20068;-77
2020/12/02 06:05:24;;;;;;;19.30;10.90;;;4.10;99.90;;;;;;5021496;28;20064;-75
2020/12/02 06:07:53;;;;;;;19.45;10.77;;;4.00;99.90;;;;;;5026230;28;20095;-76
2020/12/02 06:10:34;;;;;;;20.27;11.65;;;4.00;99.90;;;;;;5041889;28;20059;-76
2020/12/02 06:13:00;;;;;;;22.52;11.82;;;4.00;99.90;;;;;;5017100;28;20033;-76
2020/12/02 06:15:26;;;;;;;21.65;11.50;;;4.00;99.90;;;;;;5024302;28;20431;-76
2020/12/02 06:18:26;;;;;;;21.65;12.35;;;4.00;99.90;;;;;;5026596;28;20057;-76
2020/12/02 06:20:52;;;;;;;22.67;11.98;;;4.00;99.90;;;;;;5029659;28;20075;-77
2020/12/02 06:23:18;;;;;;;21.85;12.15;;;4.00;99.90;;;;;;5026979;28;20053;-76
2020/12/02 06:25:55;;;;;;;22.60;12.65;;;4.00;99.90;;;;;;5003856;28;20053;-77
2020/12/02 06:28:29;;;;;;;22.10;12.40;;;4.00;99.90;;;;;;5024492;28;20041;-76
2020/12/02 06:31:18;;;;;;;25.02;12.93;;;4.00;99.90;;;;;;5023518;28;20045;-77
2020/12/02 06:33:45;;;;;;;24.63;13.68;;;3.90;99.90;;;;;;5014682;28;20037;-77
2020/12/02 06:36:30;;;;;;;25.05;14.52;;;3.80;99.90;;;;;;5028381;28;20024;-76
2020/12/02 06:39:23;;;;;;;25.77;13.93;;;3.70;99.90;;;;;;5029378;28;20041;-78
2020/12/02 06:41:48;;;;;;;26.20;13.75;;;3.70;99.90;;;;;;5036263;28;20112;-75
2020/12/02 06:44:14;;;;;;;28.73;15.45;;;3.80;99.90;;;;;;5020528;28;20467;-76
2020/12/02 06:47:08;;;;;;;29.83;15.48;;;4.40;99.90;;;;;;5024238;28;20044;-74
2020/12/02 06:49:37;;;;;;;29.98;15.57;;;3.80;99.90;;;;;;5024099;28;20041;-76
2020/12/02 06:52:09;;;;;;;27.38;14.27;;;3.80;99.90;;;;;;5018730;28;20414;-76
2020/12/02 06:54:40;;;;;;;29.98;15.27;;;3.90;99.90;;;;;;5021025;28;20152;-76
2020/12/02 06:57:07;;;;;;;32.30;15.73;;;3.90;99.90;;;;;;5033657;28;20029;-76
2020/12/02 06:59:46;;;;;;;28.58;15.13;;;3.80;99.90;;;;;;5024677;28;20041;-76
2020/12/02 07:02:36;;;;;;;31.98;15.82;;;3.80;99.90;;;;;;5024923;28;20081;-76
2020/12/02 07:05:05;;;;;;;31.58;16.70;;;3.90;99.90;;;;;;5022193;28;20128;-76
2020/12/02 07:07:31;;;;;;;31.23;15.35;;;3.90;99.90;;;;;;5027671;28;20033;-76
2020/12/02 07:09:58;;;;;;;32.67;16.83;;;3.90;99.90;;;;;;5024540;28;20044;-76
2020/12/02 07:12:29;;;;;;;32.47;17.45;;;3.80;99.90;;;;;;5023343;28;20049;-77
2020/12/02 07:14:59;;;;;;;37.45;18.77;;;3.70;99.90;;;;;;5026206;28;20044;-77
2020/12/02 07:17:25;;;;;;;36.50;18.35;;;3.70;99.90;;;;;;5023648;28;20037;-78
2020/12/02 07:19:51;;;;;;;36.08;17.15;;;3.70;99.90;;;;;;5025288;28;20487;-76
2020/12/02 07:22:26;;;;;;;34.88;18.17;;;3.70;99.90;;;;;;5024417;28;20123;-76
2020/12/02 07:24:53;;;;;;;35.53;18.20;;;3.60;99.90;;;;;;5026947;28;20049;-75
2020/12/02 07:27:21;;;;;;;34.47;18.15;;;3.60;99.90;;;;;;5026280;28;20029;-76
2020/12/02 07:29:57;;;;;;;32.55;16.55;;;3.60;99.90;;;;;;5011079;28;20044;-76
2020/12/02 07:32:23;;;;;;;35.90;18.02;;;3.60;99.90;;;;;;5036146;28;20037;-78
2020/12/02 07:34:48;;;;;;;33.38;18.60;;;3.60;99.90;;;;;;5025931;28;20037;-77
2020/12/02 07:37:20;;;;;;;34.75;18.60;;;3.70;99.90;;;;;;5021615;28;20483;-76
2020/12/02 07:39:50;;;;;;;;;;;3.80;99.90;;;;;;5026672;28;20037;-77
2020/12/02 07:42:33;;;;;;;33.40;17.60;;;3.80;99.90;;;;;;5029078;28;19909;-76
2020/12/02 07:45:05;;;;;;;34.70;17.52;;;3.90;99.90;;;;;;5025782;28;20034;-76
2020/12/02 07:47:33;;;;;;;34.40;17.85;;;3.90;99.90;;;;;;5040018;28;20073;-75
2020/12/02 07:50:26;;;;;;;33.17;17.08;;;4.20;99.90;;;;;;5024721;28;20041;-76
2020/12/02 07:52:55;;;;;;;35.22;18.70;;;3.80;99.90;;;;;;5024231;28;20088;-75
2020/12/02 07:55:30;;;;;;;31.02;16.05;;;3.80;99.90;;;;;;5027450;28;20034;-76
2020/12/02 07:57:56;;;;;;;35.80;17.75;;;3.80;99.90;;;;;;5024429;28;20040;-76
2020/12/02 08:00:41;;;;;;;38.17;18.95;;;3.80;99.90;;;;;;5020487;28;20037;-77
2020/12/02 08:03:26;;;;;;;34.53;18.95;;;3.80;99.90;;;;;;5023390;28;20021;-75
2020/12/02 08:06:10;;;;;;;37.90;18.98;;;3.70;99.90;;;;;;5024327;28;20074;-76
2020/12/02 08:08:36;;;;;;;35.25;17.50;;;3.80;99.90;;;;;;5028946;28;20046;-76
2020/12/02 08:11:05;;;;;;;37.65;18.92;;;3.80;99.90;;;;;;5028488;28;20033;-75
2020/12/02 08:13:34;;;;;;;39.78;18.58;;;3.80;99.90;;;;;;5026295;28;20034;-76
2020/12/02 08:16:02;;;;;;;35.33;18.90;;;3.80;99.90;;;;;;5025832;28;20029;-76
2020/12/02 08:18:31;;;;;;;32.92;16.70;;;3.80;99.90;;;;;;5026789;28;20045;-76
2020/12/02 08:21:11;;;;;;;34.53;18.42;;;3.90;99.90;;;;;;5024763;28;20092;-74
2020/12/02 08:23:38;;;;;;;34.10;17.73;;;3.80;99.90;;;;;;5025259;28;20052;-76
2020/12/02 08:26:17;;;;;;;37.88;18.30;;;3.80;99.90;;;;;;5021924;28;20193;-75
2020/12/02 08:28:44;;;;;;;32.35;17.38;;;3.80;99.90;;;;;;5039339;28;20049;-77
2020/12/02 08:31:17;;;;;;;32.97;17.52;;;3.90;99.90;;;;;;5023128;28;20033;-76
2020/12/02 08:34:16;;;;;;;32.38;17.20;;;3.90;99.80;;;;;;5025710;28;20388;-75
2020/12/02 08:36:48;;;;;;;31.65;15.60;;;3.90;99.70;;;;;;5028494;28;20033;-77
2020/12/02 08:39:28;;;;;;;32.28;16.75;;;3.90;99.80;;;;;;5027535;28;20072;-76
2020/12/02 08:41:54;;;;;;;32.35;17.40;;;3.90;99.80;;;;;;5022734;28;20116;-76
2020/12/02 08:44:19;;;;;;;26.85;14.65;;;3.90;99.80;;;;;;5025187;28;20125;-75
2020/12/02 08:46:49;;;;;;;28.17;15.20;;;3.80;99.40;;;;;;5008600;28;20547;-75
2020/12/02 08:49:14;;;;;;;28.98;15.35;;;3.90;98.90;;;;;;5032492;28;20064;-76
2020/12/02 08:51:43;;;;;;;30.75;16.75;;;3.90;99.10;;;;;;5026849;28;20434;-76
2020/12/02 08:54:12;;;;;;;31.38;15.07;;;3.90;99.30;;;;;;5028857;28;20124;-75
2020/12/02 08:56:37;;;;;;;30.98;14.93;;;3.80;99.60;;;;;;5026938;28;20069;-75
2020/12/02 08:59:05;;;;;;;24.83;13.10;;;3.80;99.50;;;;;;5027260;28;20084;-76
2020/12/02 09:01:31;;;;;;;25.60;12.48;;;3.60;99.30;;;;;;5026900;28;20132;-75
2020/12/02 09:03:59;;;;;;;25.52;12.57;;;3.90;99.20;;;;;;5023571;28;20045;-76
2020/12/02 09:06:24;;;;;;;19.02;10.85;;;3.90;99.00;;;;;;5020109;28;20049;-76
2020/12/02 09:08:51;;;;;;;22.05;12.05;;;3.90;98.70;;;;;;5037045;28;20414;-76
2020/12/02 09:11:21;;;;;;;22.33;12.55;;;3.90;98.50;;;;;;5041376;28;20044;-76
2020/12/02 09:13:47;;;;;;;20.45;11.73;;;;;;;;;;5025986;28;20048;-75
2020/12/02 09:16:17;;;;;;;19.55;10.88;;;3.90;97.90;;;;;;5026879;28;20046;-77
2020/12/02 09:18:43;;;;;;;17.23;9.77;;;4.00;97.80;;;;;;5036262;28;20118;-76
2020/12/02 09:21:09;;;;;;;18.75;10.55;;;4.00;97.50;;;;;;5024856;28;20045;-75
2020/12/02 09:23:35;;;;;;;19.20;9.98;;;4.00;97.70;;;;;;5026840;28;20053;-74
2020/12/02 09:26:01;;;;;;;17.50;9.82;;;4.00;97.70;;;;;;5008823;28;20047;-77
2020/12/02 09:28:26;;;;;;;15.40;8.93;;;3.90;97.70;;;;;;5011517;28;20510;-76
2020/12/02 09:30:52;;;;;;;14.18;8.20;;;4.00;97.50;;;;;;5025032;28;20094;-75
2020/12/02 09:33:18;;;;;;;15.60;9.43;;;4.10;97.10;;;;;;5010051;28;20490;-75
2020/12/02 09:35:44;;;;;;;16.42;8.95;;;4.20;96.50;;;;;;5001813;28;20043;-76
2020/12/02 09:38:10;;;;;;;16.17;9.65;;;4.20;96.70;;;;;;5031020;28;20042;-76
2020/12/02 09:40:35;;;;;;;17.58;10.13;;;4.20;96.40;;;;;;5021421;28;20531;-74
2020/12/02 09:43:21;;;;;;;19.05;10.18;;;4.10;96.80;;;;;;5024352;28;20026;-76
2020/12/02 09:45:59;;;;;;;18.10;10.68;;;4.10;96.60;;;;;;5025380;28;20503;-75
2020/12/02 09:48:26;;;;;;;19.13;10.38;;;4.00;96.80;;;;;;5030377;28;20048;-75
2020/12/02 09:50:52;;;;;;;16.98;9.82;;;3.90;97.10;;;;;;5023739;28;20615;-75
2020/12/02 09:53:29;;;;;;;17.92;10.40;;;3.90;97.10;;;;;;5022895;28;20036;-74
2020/12/02 09:55:56;;;;;;;19.83;11.18;;;3.90;97.30;;;;;;5026354;28;20202;-76
2020/12/02 09:58:22;;;;;;;19.05;10.57;;;3.90;97.00;;;;;;5024776;28;20037;-76
2020/12/02 10:00:52;;;;;;;17.52;10.30;;;4.00;96.90;;;;;;5025726;28;20037;-76
2020/12/02 10:03:47;;;;;;;16.90;9.93;;;3.90;97.10;;;;;;5021896;28;20029;-76
2020/12/02 10:06:22;;;;;;;18.67;10.57;;;3.90;97.20;;;;;;5027377;28;20455;-78
2020/12/02 10:08:57;;;;;;;20.40;11.45;;;3.80;97.50;;;;;;5026334;28;20021;-76
2020/12/02 10:11:48;;;;;;;25.13;12.82;;;3.90;97.30;;;;;;5037384;28;20136;-76
2020/12/02 10:14:28;;;;;;;23.70;11.80;;;3.90;97.80;;;;;;5036499;28;20091;-76
2020/12/02 10:17:25;;;;;;;24.38;13.40;;;3.80;97.80;;;;;;5024499;28;20053;-77
2020/12/02 10:20:22;;;;;;;20.90;11.30;;;3.80;98.00;;;;;;5042982;28;20037;-76
2020/12/02 10:23:11;;;;;;;21.48;12.13;;;3.90;97.70;;;;;;5019756;28;20137;-75
2020/12/02 10:25:59;;;;;;;20.98;12.70;;;3.90;97.60;;;;;;5022024;28;20457;-76
2020/12/02 10:28:41;;;;;;;20.63;11.88;;;3.90;97.30;;;;;;5029045;28;20033;-76
2020/12/02 10:31:33;;;;;;;22.15;12.73;;;3.90;97.40;;;;;;5029984;28;20033;-77
2020/12/02 10:34:09;;;;;;;26.35;13.15;;;3.90;97.40;;;;;;5024009;28;20037;-76
2020/12/02 10:36:39;;;;;;;20.58;10.27;;;4.00;97.10;;;;;;5029394;28;20067;-77
2020/12/02 10:39:14;;;;;;;20.80;11.97;;;4.10;97.40;;;;;;5029155;28;20053;-77
2020/12/02 10:42:13;;;;;;;20.27;11.65;;;4.00;97.10;;;;;;5023602;28;20482;-75
2020/12/02 10:45:17;;;;;;;19.60;10.95;;;4.00;97.20;;;;;;5023116;28;20108;-76
2020/12/02 10:47:59;;;;;;;21.05;11.55;;;4.00;97.10;;;;;;5015105;28;20061;-76
2020/12/02 10:50:29;;;;;;;20.55;11.60;;;4.00;97.50;;;;;;5019886;28;20041;-76
2020/12/02 10:52:56;;;;;;;21.27;11.82;;;4.00;97.40;;;;;;5017098;28;20053;-77
2020/12/02 10:55:25;;;;;;;22.02;11.00;;;4.00;97.00;;;;;;5023341;28;20442;-77
2020/12/02 10:57:56;;;;;;;19.75;11.25;;;4.00;97.40;;;;;;5022204;28;20029;-76
2020/12/02 11:00:21;;;;;;;21.17;12.03;;;4.00;97.20;;;;;;5032667;28;20142;-76
2020/12/02 11:02:47;;;;;;;20.92;11.57;;;3.90;97.50;;;;;;5026662;28;20319;-77
2020/12/02 11:05:13;;;;;;;23.02;12.25;;;3.90;98.00;;;;;;5018681;28;20499;-76
2020/12/02 11:07:45;;;;;;;26.02;12.10;;;3.90;97.50;;;;;;5009334;28;20137;-77
2020/12/02 11:10:18;;;;;;;21.42;12.10;;;4.00;97.30;;;;;;5026074;28;20026;-76
2020/12/02 11:13:02;;;;;;;21.17;10.88;;;4.10;97.20;;;;;;5041542;28;20060;-76
2020/12/02 11:15:48;;;;;;;19.35;11.07;;;4.00;97.30;;;;;;5047933;28;20048;-76
2020/12/02 11:18:31;;;;;;;20.25;11.00;;;4.10;96.60;;;;;;5028915;28;20567;-78
2020/12/02 11:21:34;;;;;;;21.27;11.88;;;4.20;96.40;;;;;;5024097;28;20049;-76
2020/12/02 11:24:29;;;;;;;18.23;10.05;;;4.10;96.90;;;;;;5036569;28;20047;-76
2020/12/02 11:26:54;;;;;;;21.83;11.63;;;4.10;97.00;;;;;;5026130;28;20467;-75
2020/12/02 11:29:21;;;;;;;21.33;11.30;;;4.00;96.70;;;;;;5030307;28;20045;-77
2020/12/02 11:31:47;;;;;;;20.20;11.48;;;4.00;97.10;;;;;;5029299;28;20491;-76
2020/12/02 11:34:27;;;;;;;19.23;10.73;;;4.00;97.30;;;;;;5031783;28;20105;-76
2020/12/02 11:37:41;;;;;;;21.25;12.02;;;4.10;96.90;;;;;;5029447;28;20562;-76
2020/12/02 11:40:12;;;;;;;21.85;11.80;;;4.00;97.10;;;;;;4983766;28;20061;-77
2020/12/02 11:42:56;;;;;;;;;;;4.00;97.00;;;;;;5048409;28;20056;-75
2020/12/02 11:45:29;;;;;;;17.83;10.20;;;4.10;96.80;;;;;;5027507;28;20334;-75
2020/12/02 11:48:03;;;;;;;19.00;10.57;;;4.20;96.40;;;;;;5026521;28;20128;-75
2020/12/02 11:50:44;;;;;;;20.98;10.60;;;4.30;96.40;;;;;;5024220;28;20112;-74
2020/12/02 11:53:37;;;;;;;18.75;10.07;;;4.20;96.40;;;;;;5024597;28;20463;-74
2020/12/02 11:56:04;;;;;;;19.05;10.25;;;4.20;96.20;;;;;;5033406;28;20029;-76
2020/12/02 11:58:30;;;;;;;19.38;10.32;;;4.20;96.30;;;;;;5027136;28;20064;-76
2020/12/02 12:01:03;;;;;;;19.33;10.85;;;4.20;96.20;;;;;;5030137;28;20029;-77
2020/12/02 12:03:52;;;;;;;20.63;10.95;;;4.20;95.90;;;;;;5028394;28;20040;-76
2020/12/02 12:06:26;;;;;;;16.73;9.13;;;4.40;95.80;;;;;;5029015;28;20057;-77
2020/12/02 12:09:20;;;;;;;20.55;9.10;;;4.20;95.70;;;;;;5026065;28;20037;-76
2020/12/02 12:11:47;;;;;;;19.85;9.52;;;4.30;95.80;;;;;;5020118;28;20037;-77
2020/12/02 12:14:23;;;;;;;19.70;9.82;;;4.00;96.00;;;;;;5004714;28;20038;-76
2020/12/02 12:16:52;;;;;;;18.33;9.90;;;4.10;96.10;;;;;;5032334;28;20395;-79
2020/12/02 12:19:45;;;;;;;17.15;9.15;;;6.00;96.30;;;;;;5038946;28;20052;-77
2020/12/02 12:22:29;;;;;;;20.05;10.40;;;4.10;95.70;;;;;;5029299;28;20499;-75
2020/12/02 12:25:23;;;;;;;18.48;10.20;;;4.00;96.10;;;;;;5030648;28;20092;-77
2020/12/02 12:28:21;;;;;;;19.23;9.90;;;4.00;96.00;;;;;;5026549;28;20136;-76
2020/12/02 12:30:48;;;;;;;21.50;10.38;;;4.20;95.60;;;;;;5020387;28;20050;-77
2020/12/02 12:33:37;;;;;;;20.33;10.85;;;4.00;96.10;;;;;;5028583;28;20071;-76
2020/12/02 12:36:11;;;;;;;17.90;9.73;;;4.00;96.40;;;;;;5028956;28;20518;-75
2020/12/02 12:39:20;;;;;;;17.65;10.27;;;4.00;96.30;;;;;;5020756;28;20052;-75
2020/12/02 12:41:50;;;;;;;22.17;10.38;;;3.90;96.00;;;;;;5031265;28;20036;-76
2020/12/02 12:44:29;;;;;;;19.73;9.88;;;3.90;96.30;;;;;;5025481;28;20045;-75
2020/12/02 12:47:13;;;;;;;19.90;10.13;;;3.80;96.30;;;;;;5022271;28;20084;-76
2020/12/02 12:49:39;;;;;;;21.45;10.57;;;3.80;96.20;;;;;;5028529;28;20049;-76
2020/12/02 12:52:05;;;;;;;21.77;10.60;;;3.90;96.30;;;;;;5030112;28;20524;-76
2020/12/02 12:54:34;;;;;;;19.67;10.23;;;3.90;96.40;;;;;;5025096;28;20041;-76
2020/12/02 12:57:01;;;;;;;20.80;9.65;;;3.90;96.20;;;;;;5023316;28;20463;-75
2020/12/02 12:59:27;;;;;;;19.05;9.98;;;3.90;96.10;;;;;;5020922;28;20469;-76
2020/12/02 13:01:56;;;;;;;19.85;10.18;;;3.80;96.40;;;;;;5018029;28;20378;-75
2020/12/02 13:04:23;;;;;;;17.33;9.07;;;3.90;96.10;;;;;;5019517;28;20033;-75
2020/12/02 13:07:21;;;;;;;18.80;9.68;;;3.90;95.80;;;;;;4997024;28;20195;-75
2020/12/02 13:10:24;;;;;;;18.23;8.98;;;3.70;95.70;;;;;;5019500;28;20033;-74